createdAt,value
2018-08-04T00:00:04.646Z,18.90
2018-08-04T00:02:32.824Z,19.00
2018-08-04T00:05:00.962Z,19.00
2018-08-04T00:07:29.114Z,19.00
2018-08-04T00:09:57.253Z,19.00
2018-08-04T00:12:25.395Z,19.00
2018-08-04T00:14:53.555Z,19.10
2018-08-04T00:17:21.694Z,19.10
2018-08-04T00:19:49.833Z,18.90
2018-08-04T00:22:18.006Z,18.70
2018-08-04T00:24:46.162Z,18.50
2018-08-04T00:27:14.324Z,18.30
2018-08-04T00:29:42.476Z,18.20
2018-08-04T00:32:10.619Z,18.10
2018-08-04T00:34:38.765Z,18.00
2018-08-04T00:37:06.914Z,17.90
2018-08-04T00:39:35.057Z,18.00
2018-08-04T00:42:03.272Z,18.00
2018-08-04T00:44:31.422Z,17.90
2018-08-04T00:46:59.569Z,17.90
2018-08-04T00:49:28.363Z,17.80
2018-08-04T00:51:56.538Z,17.80
2018-08-04T00:54:24.714Z,17.80
2018-08-04T00:56:52.864Z,17.80
2018-08-04T00:59:21.010Z,17.90
2018-08-04T01:01:49.161Z,17.90
2018-08-04T01:04:17.305Z,17.80
2018-08-04T01:06:45.445Z,17.80
2018-08-04T01:09:13.581Z,17.70
2018-08-04T01:11:41.718Z,17.70
2018-08-04T01:14:09.861Z,17.60
2018-08-04T01:16:38.017Z,17.50
2018-08-04T01:19:06.177Z,17.40
2018-08-04T01:21:34.323Z,17.40
2018-08-04T01:24:02.465Z,17.40
2018-08-04T01:26:30.617Z,17.30
2018-08-04T01:28:58.758Z,17.40
2018-08-04T01:31:26.957Z,17.30
2018-08-04T01:33:55.159Z,17.20
2018-08-04T01:36:23.261Z,17.10
2018-08-04T01:38:51.397Z,17.00
2018-08-04T01:41:19.546Z,16.90
2018-08-04T01:43:47.677Z,16.90
2018-08-04T01:46:18.853Z,17.00
2018-08-04T01:48:47.017Z,17.00
2018-08-04T01:51:15.161Z,16.90
2018-08-04T01:53:43.361Z,16.80
2018-08-04T01:56:11.446Z,16.70
2018-08-04T01:58:39.590Z,16.70
2018-08-04T02:01:07.765Z,16.60
2018-08-04T02:03:35.897Z,16.60
2018-08-04T02:06:04.064Z,16.60
2018-08-04T02:08:32.265Z,16.60
2018-08-04T02:11:00.413Z,16.60
2018-08-04T02:13:28.544Z,16.50
2018-08-04T02:15:56.692Z,16.50
2018-08-04T02:18:24.824Z,16.50
2018-08-04T02:20:52.978Z,16.50
2018-08-04T02:23:21.122Z,16.50
2018-08-04T02:25:49.266Z,16.50
2018-08-04T02:28:17.389Z,16.50
2018-08-04T02:30:45.521Z,16.50
2018-08-04T02:33:13.683Z,16.50
2018-08-04T02:35:41.834Z,16.50
2018-08-04T02:38:09.962Z,16.40
2018-08-04T02:40:38.105Z,16.40
2018-08-04T02:43:06.266Z,16.30
2018-08-04T02:45:34.461Z,16.20
2018-08-04T02:48:02.603Z,16.20
2018-08-04T02:50:30.765Z,16.10
2018-08-04T02:52:58.922Z,16.20
2018-08-04T02:55:27.077Z,16.10
2018-08-04T02:57:55.223Z,16.20
2018-08-04T03:00:23.313Z,16.20
2018-08-04T03:02:51.429Z,16.20
2018-08-04T03:05:19.529Z,16.10
2018-08-04T03:07:47.654Z,16.20
2018-08-04T03:10:15.755Z,16.00
2018-08-04T03:12:47.579Z,16.00
2018-08-04T03:15:15.677Z,16.10
2018-08-04T03:17:43.822Z,16.10
2018-08-04T03:20:11.954Z,16.10
2018-08-04T03:22:40.074Z,16.00
2018-08-04T03:25:08.230Z,16.10
2018-08-04T03:27:36.349Z,16.10
2018-08-04T03:30:05.126Z,16.00
2018-08-04T03:32:33.255Z,15.90
2018-08-04T03:35:01.372Z,15.90
2018-08-04T03:37:29.490Z,15.90
2018-08-04T03:39:57.584Z,15.80
2018-08-04T03:42:25.705Z,15.80
2018-08-04T03:44:53.814Z,15.80
2018-08-04T03:47:21.926Z,15.80
2018-08-04T03:49:50.037Z,15.80
2018-08-04T03:52:18.144Z,15.80
2018-08-04T03:54:46.274Z,15.90
2018-08-04T03:57:14.407Z,15.90
2018-08-04T03:59:42.581Z,16.00
2018-08-04T04:02:10.689Z,16.00
2018-08-04T04:04:38.833Z,16.00
2018-08-04T04:07:07.176Z,15.90
2018-08-04T04:09:35.317Z,15.90
2018-08-04T04:12:03.482Z,15.90
2018-08-04T04:14:31.620Z,15.90
2018-08-04T04:16:59.773Z,15.90
2018-08-04T04:19:27.916Z,16.00
2018-08-04T04:21:56.057Z,16.00
2018-08-04T04:24:24.228Z,16.10
2018-08-04T04:26:52.376Z,16.10
2018-08-04T04:29:20.510Z,16.20
2018-08-04T04:31:48.673Z,16.20
2018-08-04T04:34:16.827Z,16.20
2018-08-04T04:36:45.002Z,16.30
2018-08-04T04:39:13.125Z,16.30
2018-08-04T04:41:41.366Z,16.50
2018-08-04T04:44:09.634Z,16.60
2018-08-04T04:46:37.852Z,16.80
2018-08-04T04:49:07.393Z,17.00
2018-08-04T04:51:35.582Z,17.10
2018-08-04T04:54:03.818Z,17.20
2018-08-04T04:56:31.966Z,17.30
2018-08-04T04:59:06.190Z,17.40
2018-08-04T05:01:34.333Z,17.60
2018-08-04T05:04:02.486Z,17.80
2018-08-04T05:06:30.665Z,17.90
2018-08-04T05:08:59.110Z,18.00
2018-08-04T05:11:27.245Z,18.20
2018-08-04T05:13:55.492Z,18.40
2018-08-04T05:16:23.640Z,18.70
2018-08-04T05:18:51.810Z,18.90
2018-08-04T05:21:19.953Z,19.00
2018-08-04T05:23:48.109Z,19.20
2018-08-04T05:26:16.253Z,19.60
2018-08-04T05:28:44.398Z,19.80
2018-08-04T05:31:12.549Z,20.00
2018-08-04T05:33:40.700Z,20.20
2018-08-04T05:36:08.846Z,20.40
2018-08-04T05:38:36.998Z,20.70
2018-08-04T05:41:05.245Z,20.90
2018-08-04T05:43:33.446Z,21.10
2018-08-04T05:46:01.553Z,21.20
2018-08-04T05:48:29.709Z,21.40
2018-08-04T05:50:57.844Z,21.60
2018-08-04T05:53:26.027Z,21.90
2018-08-04T05:55:54.182Z,22.10
2018-08-04T05:58:22.317Z,22.20
2018-08-04T06:00:50.441Z,22.30
2018-08-04T06:03:18.624Z,22.30
2018-08-04T06:05:46.708Z,22.50
2018-08-04T06:08:14.837Z,22.70
2018-08-04T06:10:42.962Z,22.70
2018-08-04T06:13:11.089Z,22.90
2018-08-04T06:15:39.210Z,23.10
2018-08-04T06:18:07.484Z,23.40
2018-08-04T06:20:35.605Z,23.70
2018-08-04T06:23:03.729Z,24.00
2018-08-04T06:25:31.854Z,24.30
2018-08-04T06:27:59.983Z,24.40
2018-08-04T06:30:29.202Z,24.60
2018-08-04T06:32:57.313Z,24.90
2018-08-04T06:35:25.430Z,25.10
2018-08-04T06:37:53.565Z,25.30
2018-08-04T06:40:21.857Z,25.60
2018-08-04T06:42:49.966Z,25.90
2018-08-04T06:45:18.094Z,26.10
2018-08-04T06:50:14.113Z,26.40
2018-08-04T06:52:42.240Z,26.60
2018-08-04T06:55:10.366Z,26.80
2018-08-04T06:57:38.473Z,26.90
2018-08-04T07:00:07.031Z,27.10
2018-08-04T07:02:35.160Z,27.20
2018-08-04T07:05:03.352Z,27.40
2018-08-04T07:07:31.493Z,27.70
2018-08-04T07:09:59.653Z,27.80
2018-08-04T07:12:28.794Z,27.90
2018-08-04T07:14:56.946Z,28.00
2018-08-04T07:17:25.120Z,28.10
2018-08-04T07:19:53.269Z,28.10
2018-08-04T07:22:21.406Z,28.20
2018-08-04T07:24:49.558Z,28.30
2018-08-04T07:27:17.754Z,28.60
2018-08-04T07:29:46.746Z,28.70
2018-08-04T07:32:14.874Z,28.90
2018-08-04T07:34:43.025Z,29.40
2018-08-04T07:37:11.185Z,29.70
2018-08-04T07:39:39.337Z,29.90
2018-08-04T07:42:07.485Z,29.80
2018-08-04T07:44:35.641Z,29.90
2018-08-04T07:47:03.809Z,30.10
2018-08-04T07:49:35.153Z,29.90
2018-08-04T07:52:04.384Z,29.50
2018-08-04T07:54:32.533Z,29.20
2018-08-04T07:57:00.677Z,29.20
2018-08-04T07:59:31.329Z,29.10
2018-08-04T08:01:59.709Z,28.90
2018-08-04T08:04:31.141Z,28.70
2018-08-04T08:06:59.266Z,28.30
2018-08-04T08:09:27.388Z,28.10
2018-08-04T08:11:55.498Z,28.10
2018-08-04T08:14:23.627Z,28.20
2018-08-04T08:16:51.738Z,28.20
2018-08-04T08:19:19.929Z,28.30
2018-08-04T08:21:48.011Z,28.20
2018-08-04T08:24:16.138Z,28.10
2018-08-04T08:26:44.246Z,28.00
2018-08-04T08:29:12.373Z,28.00
2018-08-04T08:31:40.544Z,28.10
2018-08-04T08:36:36.554Z,28.30
2018-08-04T08:39:06.658Z,28.50
2018-08-04T08:41:34.769Z,28.50
2018-08-04T08:44:02.916Z,28.50
2018-08-04T08:46:31.056Z,28.60
2018-08-04T08:48:59.186Z,28.50
2018-08-04T08:51:27.302Z,28.50
2018-08-04T08:53:55.525Z,28.50
2018-08-04T08:56:23.557Z,28.50
2018-08-04T08:58:51.685Z,28.60
2018-08-04T09:01:19.834Z,28.60
2018-08-04T09:03:47.976Z,28.70
2018-08-04T09:06:16.134Z,28.90
2018-08-04T09:08:49.691Z,28.80
2018-08-04T09:11:17.800Z,28.90
2018-08-04T09:13:45.966Z,29.20
2018-08-04T09:16:14.132Z,29.20
2018-08-04T09:21:10.273Z,29.70
2018-08-04T09:23:38.360Z,29.60
2018-08-04T09:26:06.481Z,29.30
2018-08-04T09:28:34.591Z,29.20
2018-08-04T09:31:02.743Z,29.40
2018-08-04T09:33:30.862Z,29.40
2018-08-04T09:35:58.990Z,29.40
2018-08-04T09:38:27.113Z,29.20
2018-08-04T09:52:18.907Z,29.60
2018-08-04T09:54:47.045Z,29.80
2018-08-04T09:57:15.174Z,29.70
2018-08-04T09:59:43.379Z,30.00
2018-08-04T10:02:12.454Z,30.00
2018-08-04T10:04:41.016Z,29.80
2018-08-04T10:07:09.733Z,29.90
2018-08-04T10:09:37.872Z,30.00
2018-08-04T10:12:06.034Z,30.00
2018-08-04T10:14:34.142Z,30.00
2018-08-04T10:19:30.241Z,29.80
2018-08-04T10:21:58.370Z,29.50
2018-08-04T10:24:26.493Z,29.50
2018-08-04T10:26:54.614Z,29.50
2018-08-04T10:29:22.721Z,29.40
2018-08-04T10:31:50.880Z,29.30
2018-08-04T10:34:18.987Z,29.20
2018-08-04T10:36:47.137Z,29.10
2018-08-04T10:39:15.269Z,29.10
2018-08-04T10:41:43.400Z,28.90
2018-08-04T10:44:11.562Z,28.60
2018-08-04T10:46:39.677Z,28.70
2018-08-04T10:49:07.793Z,28.80
2018-08-04T10:51:35.997Z,29.00
2018-08-04T10:54:04.153Z,29.20
2018-08-04T10:56:32.296Z,29.30
2018-08-04T10:59:00.493Z,29.30
2018-08-04T11:01:28.627Z,29.30
2018-08-04T11:03:56.948Z,29.30
2018-08-04T11:06:25.054Z,29.50
2018-08-04T11:08:53.200Z,29.40
2018-08-04T11:11:21.314Z,29.30
2018-08-04T11:16:17.345Z,29.40
2018-08-04T11:18:45.493Z,29.50
2018-08-04T11:21:13.609Z,29.70
2018-08-04T11:23:41.741Z,29.70
2018-08-04T11:26:09.903Z,30.00
2018-08-04T11:28:38.074Z,30.30
2018-08-04T11:31:06.302Z,30.40
2018-08-04T11:33:34.450Z,30.60
2018-08-04T11:36:02.577Z,30.70
2018-08-04T11:38:30.703Z,30.90
2018-08-04T11:40:58.841Z,31.10
2018-08-04T11:43:26.975Z,31.10
2018-08-04T11:45:55.107Z,30.70
2018-08-04T11:48:23.834Z,30.50
2018-08-04T11:50:51.981Z,30.40
2018-08-04T11:53:20.145Z,30.00
2018-08-04T11:55:48.284Z,29.80
2018-08-04T11:58:16.443Z,29.90
2018-08-04T12:00:44.577Z,30.00
2018-08-04T12:03:12.717Z,30.10
2018-08-04T12:05:40.830Z,30.30
2018-08-04T12:08:08.971Z,30.40
2018-08-04T12:10:37.106Z,30.50
2018-08-04T12:13:05.234Z,30.20
2018-08-04T12:15:33.422Z,30.20
2018-08-04T12:18:01.650Z,30.30
2018-08-04T12:20:29.748Z,30.00
2018-08-04T12:22:57.911Z,30.00
2018-08-04T12:25:26.063Z,29.90
2018-08-04T12:27:54.186Z,29.60
2018-08-04T12:30:22.318Z,29.80
2018-08-04T12:32:50.446Z,29.80
2018-08-04T12:35:18.580Z,29.80
2018-08-04T12:37:46.706Z,29.90
2018-08-04T12:40:14.828Z,29.50
2018-08-04T12:42:43.182Z,29.40
2018-08-04T12:45:11.333Z,29.50
2018-08-04T12:47:39.477Z,29.60
2018-08-04T12:50:07.659Z,29.90
2018-08-04T12:52:35.786Z,30.20
2018-08-04T12:55:03.920Z,30.10
2018-08-04T12:57:32.041Z,30.40
2018-08-04T13:00:00.321Z,30.40
2018-08-04T13:02:28.443Z,30.40
2018-08-04T13:07:24.481Z,30.30
2018-08-04T13:09:52.618Z,30.20
2018-08-04T13:12:20.746Z,30.10
2018-08-04T13:14:48.860Z,30.00
2018-08-04T13:17:16.977Z,29.90
2018-08-04T13:19:45.124Z,29.60
2018-08-04T13:22:13.317Z,29.60
2018-08-04T13:27:09.355Z,30.00
2018-08-04T13:29:37.486Z,30.00
2018-08-04T13:32:05.622Z,30.10
2018-08-04T13:34:33.797Z,29.90
2018-08-04T13:37:02.043Z,29.80
2018-08-04T13:41:58.015Z,29.70
2018-08-04T13:44:26.153Z,29.90
2018-08-04T13:46:54.281Z,29.80
2018-08-04T13:49:22.418Z,29.80
2018-08-04T13:51:50.536Z,29.80
2018-08-04T13:54:18.655Z,29.90
2018-08-04T13:56:46.825Z,30.10
2018-08-04T13:59:14.954Z,30.00
2018-08-04T14:01:43.088Z,29.90
2018-08-04T14:04:11.225Z,29.90
2018-08-04T14:06:39.349Z,29.80
2018-08-04T14:09:08.741Z,29.80
2018-08-04T14:11:36.921Z,29.90
2018-08-04T14:14:05.210Z,30.00
2018-08-04T14:16:33.363Z,29.90
2018-08-04T14:19:01.498Z,29.90
2018-08-04T14:21:30.325Z,29.80
2018-08-04T14:23:58.638Z,29.70
2018-08-04T14:26:26.794Z,29.70
2018-08-04T14:28:54.924Z,29.80
2018-08-04T14:31:23.094Z,29.80
2018-08-04T14:33:51.235Z,29.90
2018-08-04T14:36:19.390Z,29.90
2018-08-04T14:38:47.518Z,29.80
2018-08-04T14:41:15.665Z,29.60
2018-08-04T14:43:43.818Z,29.60
2018-08-04T14:46:11.946Z,29.70
2018-08-04T14:48:40.053Z,29.70
2018-08-04T14:51:08.198Z,29.90
2018-08-04T14:53:36.347Z,29.70
2018-08-04T14:56:04.625Z,29.70
2018-08-04T14:58:32.733Z,29.80
2018-08-04T15:01:00.874Z,29.90
2018-08-04T15:03:28.994Z,29.90
2018-08-04T15:05:57.166Z,29.80
2018-08-04T15:08:25.294Z,29.70
2018-08-04T15:10:53.421Z,29.80
2018-08-04T15:13:21.570Z,29.90
2018-08-04T15:15:49.789Z,29.80
2018-08-04T15:18:17.864Z,29.90
2018-08-04T15:20:46.049Z,29.70
2018-08-04T15:23:14.320Z,29.60
2018-08-04T15:25:42.452Z,29.50
2018-08-04T15:28:10.614Z,29.30
2018-08-04T15:30:38.761Z,29.10
2018-08-04T15:33:06.940Z,29.00
2018-08-04T15:35:35.070Z,28.90
2018-08-04T15:38:03.200Z,29.00
2018-08-04T15:40:31.379Z,29.00
2018-08-04T15:42:59.502Z,28.90
2018-08-04T15:45:28.098Z,28.90
2018-08-04T15:47:59.508Z,28.80
2018-08-04T15:50:27.632Z,28.80
2018-08-04T15:52:55.777Z,28.80
2018-08-04T15:55:24.001Z,28.70
2018-08-04T15:57:52.112Z,28.50
2018-08-04T16:00:20.314Z,28.50
2018-08-04T16:02:48.470Z,28.50
2018-08-04T16:05:16.654Z,28.50
2018-08-04T16:07:46.797Z,28.40
2018-08-04T16:10:14.949Z,28.40
2018-08-04T16:12:43.133Z,28.30
2018-08-04T16:15:11.368Z,28.10
2018-08-04T16:17:39.596Z,28.10
2018-08-04T16:20:16.972Z,28.10
2018-08-04T16:22:45.197Z,28.00
2018-08-04T16:25:14.074Z,28.00
2018-08-04T16:27:42.483Z,27.90
2018-08-04T16:30:11.154Z,27.70
2018-08-04T16:32:39.956Z,27.70
2018-08-04T16:35:11.873Z,27.70
2018-08-04T16:37:45.132Z,27.60
2018-08-04T16:40:16.541Z,27.50
2018-08-04T16:42:44.798Z,27.50
2018-08-04T16:45:13.070Z,27.40
2018-08-04T16:47:41.242Z,27.30
2018-08-04T16:50:09.374Z,27.30
2018-08-04T16:52:37.509Z,27.20
2018-08-04T16:57:44.221Z,27.10
2018-08-04T17:00:12.358Z,27.00
2018-08-04T17:02:40.490Z,27.00
2018-08-04T17:05:08.753Z,26.90
2018-08-04T17:07:36.949Z,26.80
2018-08-04T17:10:05.232Z,26.70
2018-08-04T17:12:38.443Z,26.60
2018-08-04T17:15:06.585Z,26.70
2018-08-04T17:17:34.765Z,26.60
2018-08-04T17:20:02.970Z,26.50
2018-08-04T17:25:30.922Z,26.30
2018-08-04T17:27:59.058Z,26.30
2018-08-04T17:30:28.451Z,26.30
2018-08-04T17:35:24.497Z,26.30
2018-08-04T17:37:52.707Z,26.20
2018-08-04T17:40:20.854Z,26.10
2018-08-04T17:42:49.000Z,26.10
2018-08-04T17:45:17.134Z,26.10
2018-08-04T17:47:45.274Z,26.10
2018-08-04T17:50:16.723Z,26.00
2018-08-04T17:55:12.780Z,25.70
2018-08-04T17:57:44.537Z,25.60
2018-08-04T18:00:12.685Z,25.50
2018-08-04T18:02:41.234Z,25.30
2018-08-04T18:05:09.549Z,25.30
2018-08-04T18:10:08.253Z,25.30
2018-08-04T18:12:36.392Z,25.20
2018-08-04T18:15:05.474Z,25.20
2018-08-04T18:17:33.610Z,25.10
2018-08-04T18:20:01.723Z,25.00
2018-08-04T18:22:29.885Z,25.00
2018-08-04T18:24:58.010Z,24.90
2018-08-04T18:29:54.079Z,24.80
2018-08-04T18:32:22.253Z,24.70
2018-08-04T18:34:50.381Z,24.50
2018-08-04T18:37:18.532Z,24.40
2018-08-04T18:39:46.666Z,24.40
2018-08-04T18:42:14.813Z,24.20
2018-08-04T18:44:43.006Z,24.10
2018-08-04T18:47:11.970Z,24.10
2018-08-04T18:49:40.110Z,24.10
2018-08-04T18:52:08.240Z,24.00
2018-08-04T18:54:36.367Z,23.90
2018-08-04T18:57:04.521Z,23.80
2018-08-04T18:59:32.649Z,23.70
2018-08-04T19:02:00.782Z,23.60
2018-08-04T19:04:28.930Z,23.60
2018-08-04T19:06:57.073Z,23.50
2018-08-04T19:09:25.209Z,23.40
2018-08-04T19:11:53.340Z,23.40
2018-08-04T19:14:21.478Z,23.30
2018-08-04T19:16:49.589Z,23.30
2018-08-04T19:19:17.762Z,23.20
2018-08-04T19:21:45.884Z,23.20
2018-08-04T19:24:14.037Z,23.20
2018-08-04T19:26:42.181Z,23.20
2018-08-04T19:29:10.360Z,23.10
2018-08-04T19:31:38.550Z,23.00
2018-08-04T19:34:07.718Z,22.90
2018-08-04T19:36:35.837Z,22.80
2018-08-04T19:39:10.007Z,22.90
2018-08-04T19:41:38.169Z,22.80
2018-08-04T19:44:06.610Z,22.80
2018-08-04T19:46:34.826Z,22.80
2018-08-04T19:49:03.041Z,22.80
2018-08-04T19:51:31.355Z,22.80
2018-08-04T19:54:01.089Z,22.70
2018-08-04T19:56:29.296Z,22.70
2018-08-04T19:58:57.466Z,22.60
2018-08-04T20:01:28.842Z,22.50
2018-08-04T20:03:56.986Z,22.50
2018-08-04T20:06:25.149Z,22.40
2018-08-04T20:08:53.307Z,22.40
2018-08-04T20:11:21.442Z,22.30
2018-08-04T20:13:49.632Z,22.30
2018-08-04T20:16:17.778Z,22.30
2018-08-04T20:18:45.909Z,22.30
2018-08-04T20:21:14.029Z,22.30
2018-08-04T20:23:42.158Z,22.20
2018-08-04T20:26:10.286Z,22.10
2018-08-04T20:28:38.432Z,22.10
2018-08-04T20:31:06.563Z,22.10
2018-08-04T20:33:34.758Z,22.00
2018-08-04T20:36:02.881Z,22.00
2018-08-04T20:38:31.038Z,22.00
2018-08-04T20:40:59.161Z,22.00
2018-08-04T20:45:55.239Z,22.00
2018-08-04T20:48:23.454Z,21.90
2018-08-04T20:50:51.632Z,21.80
2018-08-04T20:53:19.857Z,21.80
2018-08-04T20:55:48.131Z,21.80
2018-08-04T20:58:16.386Z,21.80
2018-08-04T21:00:54.698Z,21.80
2018-08-04T21:03:22.944Z,21.80
2018-08-04T21:05:51.088Z,21.70
2018-08-04T21:08:19.212Z,21.60
2018-08-04T21:10:47.349Z,21.60
2018-08-04T21:13:15.486Z,21.50
2018-08-04T21:15:43.694Z,21.40
2018-08-04T21:18:11.826Z,21.40
2018-08-04T21:20:39.950Z,21.40
2018-08-04T21:23:08.097Z,21.30
2018-08-04T21:25:36.246Z,21.40
2018-08-04T21:28:04.403Z,21.30
2018-08-04T21:30:32.538Z,21.30
2018-08-04T21:33:00.685Z,21.20
2018-08-04T21:35:28.808Z,21.20
2018-08-04T21:37:56.989Z,21.20
2018-08-04T21:40:25.126Z,21.20
2018-08-04T21:42:53.236Z,21.20
2018-08-04T21:45:21.418Z,21.20
2018-08-04T21:47:49.550Z,21.20
2018-08-04T21:50:17.666Z,21.10
2018-08-04T21:52:45.794Z,21.00
2018-08-04T21:55:13.916Z,20.90
2018-08-04T21:57:42.037Z,20.90
2018-08-04T22:00:11.970Z,20.80
2018-08-04T22:02:56.819Z,20.70
2018-08-04T22:05:25.414Z,20.70
2018-08-04T22:08:05.896Z,20.70
2018-08-04T22:10:34.081Z,20.70
2018-08-04T22:13:02.224Z,20.70
2018-08-04T22:15:30.320Z,20.70
2018-08-04T22:17:58.473Z,20.60
2018-08-04T22:20:27.151Z,20.60
2018-08-04T22:22:55.281Z,20.50
2018-08-04T22:25:24.623Z,20.50
2018-08-04T22:27:52.906Z,20.50
2018-08-04T22:30:21.901Z,20.40
2018-08-04T22:32:50.465Z,20.40
2018-08-04T22:35:18.674Z,20.40
2018-08-04T22:37:46.791Z,20.40
2018-08-04T22:40:15.720Z,20.40
2018-08-04T22:42:44.085Z,20.30
2018-08-04T22:46:13.201Z,20.30
2018-08-04T22:48:42.388Z,20.30
2018-08-04T22:51:10.524Z,20.20
2018-08-04T22:53:38.664Z,20.20
2018-08-04T22:56:06.794Z,20.20
2018-08-04T22:58:34.898Z,20.10
2018-08-04T23:01:03.046Z,20.10
2018-08-04T23:03:31.149Z,20.10
2018-08-04T23:05:59.292Z,20.10
2018-08-04T23:08:27.401Z,20.00
2018-08-04T23:10:55.569Z,19.90
2018-08-04T23:13:23.669Z,19.90
2018-08-04T23:15:51.802Z,19.90
2018-08-04T23:18:19.914Z,19.90
2018-08-04T23:20:48.043Z,19.90
2018-08-04T23:23:16.194Z,19.90
2018-08-04T23:25:44.325Z,20.00
2018-08-04T23:28:12.450Z,20.00
2018-08-04T23:30:40.556Z,19.90
2018-08-04T23:33:08.657Z,19.90
2018-08-04T23:35:36.774Z,19.80
2018-08-04T23:38:04.894Z,19.70
2018-08-04T23:40:33.020Z,19.70
2018-08-04T23:43:01.141Z,19.60
2018-08-04T23:45:29.262Z,19.50
2018-08-04T23:47:57.380Z,19.40
2018-08-04T23:50:25.485Z,19.40
2018-08-04T23:52:53.621Z,19.40
2018-08-04T23:55:25.368Z,19.40
2018-08-04T23:57:53.769Z,19.40
